Time;durP1;ratioP1;P1;durP2;ratioP2;P2;SDS_P1;SDS_P2;PMS_P1;PMS_P2;Temp;Humidity;BMP_temperature;BMP_pressure;BME280_temperature;BME280_humidity;BME280_pressure;Samples;Min_cycle;Max_cycle;Signal;HPM_P1;HPM_P2
2022/08/28 00:00:33;;;;;;;2.70;2.40;;;20.30;99.90;;;;;;6156912;23;20005;-84
2022/08/28 00:03:00;;;;;;;2.78;2.58;;;20.30;99.90;;;;;;6157129;23;20012;-83
2022/08/28 00:05:28;;;;;;;2.90;2.63;;;20.30;99.90;;;;;;6171538;23;20013;-84
2022/08/28 00:07:54;;;;;;;3.25;2.63;;;20.30;99.90;;;;;;6181909;23;20028;-83
2022/08/28 00:10:21;;;;;;;2.78;2.58;;;20.30;99.90;;;;;;6181712;23;20001;-84
2022/08/28 00:12:48;;;;;;;3.00;2.80;;;20.30;99.90;;;;;;6181978;23;20333;-84
2022/08/28 00:15:20;;;;;;;2.95;2.70;;;20.40;99.90;;;;;;6181779;23;20462;-83
2022/08/28 00:17:47;;;;;;;3.03;2.70;;;20.40;99.90;;;;;;6183477;23;20005;-83
2022/08/28 00:20:16;;;;;;;4.45;2.88;;;20.30;99.90;;;;;;6181690;23;20463;-83
2022/08/28 00:22:42;;;;;;;2.92;2.72;;;20.30;99.90;;;;;;6181567;23;20005;-83
2022/08/28 00:25:11;;;;;;;3.00;2.50;;;20.30;99.90;;;;;;6181745;23;20008;-83
2022/08/28 00:27:52;;;;;;;2.90;2.70;;;20.30;99.90;;;;;;6181891;23;20001;-83
2022/08/28 00:30:42;;;;;;;2.93;2.70;;;20.30;99.90;;;;;;6182694;23;20071;-83
2022/08/28 00:33:18;;;;;;;3.20;2.90;;;20.30;99.90;;;;;;6183738;23;20005;-83
2022/08/28 00:35:45;;;;;;;3.80;3.00;;;20.30;99.90;;;;;;6185322;23;20009;-82
2022/08/28 00:38:11;;;;;;;2.90;2.58;;;20.30;99.90;;;;;;6185085;23;20081;-83
2022/08/28 00:40:41;;;;;;;3.15;2.53;;;20.30;99.90;;;;;;6183537;23;20009;-83
2022/08/28 00:43:08;;;;;;;5.70;2.80;;;20.30;99.90;;;;;;6183368;23;20019;-82
2022/08/28 00:45:34;;;;;;;3.75;2.42;;;20.30;99.90;;;;;;6183453;23;20001;-83
2022/08/28 00:48:00;;;;;;;2.95;2.75;;;20.40;99.90;;;;;;6185287;23;20009;-83
2022/08/28 00:52:04;;;;;;;3.58;2.90;;;20.30;99.90;;;;;;6183421;23;20008;-82
2022/08/28 00:53:16;;;;;;;2.80;2.60;;;20.30;99.90;;;;;;6185044;23;20005;-83
2022/08/28 00:55:42;;;;;;;3.22;2.80;;;20.40;99.90;;;;;;6183381;23;20392;-83
2022/08/28 00:58:10;;;;;;;2.95;2.38;;;20.40;99.90;;;;;;6183483;23;20020;-82
2022/08/28 01:00:39;;;;;;;7.40;2.90;;;20.40;99.90;;;;;;6183679;23;20009;-83
2022/08/28 01:03:05;;;;;;;4.35;2.58;;;20.50;99.90;;;;;;6183471;23;20009;-83
2022/08/28 01:05:33;;;;;;;2.50;2.28;;;20.50;99.90;;;;;;6184392;23;20023;-88
2022/08/28 01:07:59;;;;;;;2.53;2.42;;;20.40;99.90;;;;;;6159737;23;20005;-88
2022/08/28 01:10:27;;;;;;;3.40;2.80;;;20.40;99.90;;;;;;6159903;23;20008;-88
2022/08/28 01:12:55;;;;;;;2.55;2.35;;;20.40;99.90;;;;;;6158711;23;20072;-88
2022/08/28 01:15:26;;;;;;;2.67;2.47;;;20.40;99.90;;;;;;6159833;23;20485;-89
2022/08/28 01:17:56;;;;;;;5.00;2.95;;;20.40;99.90;;;;;;6160161;23;20051;-88
2022/08/28 01:20:25;;;;;;;2.25;2.15;;;20.40;99.90;;;;;;6160205;23;20342;-89
2022/08/28 01:23:29;;;;;;;2.85;2.30;;;20.40;99.90;;;;;;6158936;23;20640;-89
2022/08/28 01:25:56;;;;;;;2.58;2.33;;;20.40;99.90;;;;;;6186720;23;20055;-88
2022/08/28 01:28:22;;;;;;;3.40;2.28;;;20.40;99.90;;;;;;6160601;23;20001;-88
2022/08/28 01:30:48;;;;;;;3.42;2.70;;;20.40;99.90;;;;;;6159888;23;20005;-88
2022/08/28 01:33:14;;;;;;;2.22;2.05;;;20.50;99.90;;;;;;6158914;23;20016;-88
2022/08/28 01:35:43;;;;;;;2.65;2.45;;;20.60;99.90;;;;;;6158806;23;20005;-86
2022/08/28 01:38:09;;;;;;;2.70;2.53;;;20.60;99.90;;;;;;6158065;23;20001;-87
2022/08/28 01:40:41;;;;;;;2.50;2.30;;;20.50;99.90;;;;;;6184916;23;20013;-88
2022/08/28 01:43:20;;;;;;;4.68;2.10;;;20.60;99.90;;;;;;6184548;23;20028;-87
2022/08/28 01:45:51;;;;;;;2.65;2.45;;;20.60;99.90;;;;;;6184412;23;20024;-87
2022/08/28 01:48:21;;;;;;;2.45;2.08;;;20.60;99.90;;;;;;6185706;23;20004;-87
2022/08/28 01:50:47;;;;;;;13.55;7.97;;;20.60;99.90;;;;;;6184922;23;20078;-86
2022/08/28 01:53:15;;;;;;;28.95;22.05;;;20.60;99.90;;;;;;6158715;23;20005;-86
2022/08/28 01:55:41;;;;;;;8.85;6.30;;;20.50;99.90;;;;;;6159652;23;20017;-87
2022/08/28 01:58:07;;;;;;;22.60;18.33;;;20.50;99.90;;;;;;6158818;23;20008;-87
2022/08/28 02:00:33;;;;;;;3.67;3.33;;;20.60;99.90;;;;;;6158806;23;20009;-86
2022/08/28 02:02:59;;;;;;;3.08;2.88;;;20.50;99.90;;;;;;6185099;23;20005;-86
2022/08/28 02:05:29;;;;;;;2.95;2.75;;;20.60;99.90;;;;;;6172686;23;20097;-86
2022/08/28 02:07:56;;;;;;;2.78;2.42;;;20.50;99.90;;;;;;6184647;23;19997;-87
2022/08/28 02:10:24;;;;;;;3.97;2.72;;;20.50;99.90;;;;;;6183514;23;20005;-87
2022/08/28 02:12:51;;;;;;;2.90;2.47;;;20.50;99.90;;;;;;6183329;23;20068;-86
2022/08/28 02:15:18;;;;;;;2.33;2.13;;;20.50;99.90;;;;;;6183006;23;20012;-85
2022/08/28 02:17:43;;;;;;;3.47;2.70;;;20.40;99.90;;;;;;6184673;23;20087;-86
2022/08/28 02:20:09;;;;;;;2.42;2.22;;;20.30;99.90;;;;;;6183086;23;20096;-85
2022/08/28 02:22:35;;;;;;;4.60;2.55;;;20.30;99.90;;;;;;6183279;23;20005;-86
2022/08/28 02:25:02;;;;;;;2.70;2.50;;;20.30;99.90;;;;;;6183028;23;20011;-85
2022/08/28 02:27:29;;;;;;;2.90;2.70;;;20.30;99.90;;;;;;6183380;23;20009;-86
2022/08/28 02:29:57;;;;;;;8.80;2.58;;;20.30;99.90;;;;;;6183025;23;20318;-86
2022/08/28 02:32:23;;;;;;;5.82;2.97;;;20.30;99.90;;;;;;6182473;23;20032;-85
2022/08/28 02:34:49;;;;;;;3.28;2.55;;;20.30;99.90;;;;;;6182693;23;20042;-85
2022/08/28 02:37:15;;;;;;;14.00;2.70;;;20.30;99.90;;;;;;6183059;23;20009;-85
2022/08/28 02:39:41;;;;;;;3.38;2.60;;;20.30;99.90;;;;;;6182884;23;20040;-85
2022/08/28 02:42:06;;;;;;;2.70;2.50;;;20.30;99.90;;;;;;6184431;23;20001;-85
2022/08/28 02:44:32;;;;;;;3.20;2.63;;;20.30;99.90;;;;;;6182911;23;20449;-85
2022/08/28 02:46:59;;;;;;;3.03;2.70;;;20.30;99.90;;;;;;6184364;23;20005;-85
2022/08/28 02:49:25;;;;;;;3.40;3.10;;;20.30;99.90;;;;;;6184077;23;20001;-85
2022/08/28 02:51:51;;;;;;;2.75;2.65;;;20.30;99.90;;;;;;6182387;23;20032;-84
2022/08/28 02:54:17;;;;;;;3.40;3.10;;;20.20;99.90;;;;;;6182574;23;20307;-84
2022/08/28 02:56:44;;;;;;;6.70;2.50;;;20.20;99.90;;;;;;6182659;23;20006;-84
2022/08/28 02:59:09;;;;;;;2.80;2.60;;;20.20;99.90;;;;;;6182811;23;20414;-85
2022/08/28 03:01:35;;;;;;;3.50;2.70;;;20.20;99.90;;;;;;6181705;23;20001;-84
2022/08/28 03:04:04;;;;;;;2.80;2.60;;;20.20;99.90;;;;;;6182195;23;20063;-84
2022/08/28 03:06:31;;;;;;;3.10;2.90;;;20.20;99.90;;;;;;6157346;23;20035;-84
2022/08/28 03:08:57;;;;;;;5.05;2.70;;;20.20;99.90;;;;;;6157245;23;20001;-83
2022/08/28 03:11:22;;;;;;;3.17;2.67;;;20.20;99.90;;;;;;6184027;23;20008;-84
2022/08/28 03:13:49;;;;;;;3.10;2.90;;;20.20;99.90;;;;;;6157633;23;20032;-84
2022/08/28 03:16:15;;;;;;;3.92;3.45;;;20.20;99.90;;;;;;6157696;23;20063;-83
2022/08/28 03:18:41;;;;;;;3.42;3.15;;;20.20;99.90;;;;;;6184015;23;20011;-84
2022/08/28 03:21:08;;;;;;;3.50;3.20;;;20.10;99.90;;;;;;6156808;23;20005;-84
2022/08/28 03:23:34;;;;;;;3.47;3.17;;;20.10;99.90;;;;;;6157364;23;20023;-84
2022/08/28 03:26:05;;;;;;;3.00;2.80;;;20.10;99.90;;;;;;6183922;23;20422;-83
2022/08/28 03:28:39;;;;;;;3.53;3.25;;;20.10;99.90;;;;;;6157565;23;20464;-83
2022/08/28 03:31:07;;;;;;;4.85;3.25;;;20.10;99.90;;;;;;6157564;23;20011;-82
2022/08/28 03:33:33;;;;;;;8.63;3.15;;;20.10;99.90;;;;;;6157334;23;20016;-83
2022/08/28 03:35:59;;;;;;;2.95;2.75;;;20.10;99.90;;;;;;6156987;23;20036;-83
2022/08/28 03:38:25;;;;;;;3.42;3.13;;;20.10;99.90;;;;;;6183918;23;20028;-83
2022/08/28 03:40:51;;;;;;;3.22;2.92;;;20.10;99.90;;;;;;6183665;23;20005;-83
2022/08/28 03:43:20;;;;;;;4.00;2.70;;;20.00;99.90;;;;;;6156491;23;20154;-82
2022/08/28 03:46:01;;;;;;;5.15;2.90;;;20.00;99.90;;;;;;6156431;23;20057;-83
2022/08/28 03:48:30;;;;;;;2.85;2.65;;;19.90;99.90;;;;;;6157097;23;20009;-83
2022/08/28 03:50:57;;;;;;;4.07;2.90;;;20.00;99.90;;;;;;6157006;23;20002;-82
2022/08/28 03:53:24;;;;;;;4.30;3.28;;;19.90;99.90;;;;;;6183142;23;20012;-83
2022/08/28 03:55:50;;;;;;;3.03;2.78;;;20.00;99.90;;;;;;6157496;23;20005;-83
2022/08/28 03:58:16;;;;;;;4.45;2.67;;;20.00;99.90;;;;;;6156937;23;20036;-82
2022/08/28 04:00:43;;;;;;;3.28;2.75;;;20.00;99.90;;;;;;6156947;23;20012;-82
2022/08/28 04:03:11;;;;;;;3.35;3.08;;;20.00;99.90;;;;;;6157154;23;20152;-82
2022/08/28 04:05:38;;;;;;;8.70;3.47;;;19.90;99.90;;;;;;6184435;23;20009;-82
2022/08/28 04:08:05;;;;;;;3.65;3.35;;;20.00;99.90;;;;;;6158137;23;20079;-82
2022/08/28 04:10:31;;;;;;;3.78;3.40;;;20.00;99.90;;;;;;6185366;23;20338;-82
2022/08/28 04:12:59;;;;;;;3.33;3.10;;;19.90;99.90;;;;;;6158939;23;20092;-82
2022/08/28 04:15:25;;;;;;;2.97;2.78;;;19.90;99.90;;;;;;6158014;23;20036;-82
2022/08/28 04:17:51;;;;;;;5.90;5.10;;;19.90;99.90;;;;;;6159513;23;20032;-87
2022/08/28 04:20:19;;;;;;;3.15;2.95;;;19.90;99.90;;;;;;6185634;23;20024;-81
2022/08/28 04:22:46;;;;;;;4.38;2.90;;;20.00;99.90;;;;;;6158848;23;20005;-81
2022/08/28 04:25:12;;;;;;;5.22;3.10;;;19.90;99.90;;;;;;6159002;23;20009;-81
2022/08/28 04:27:38;;;;;;;3.20;3.00;;;19.90;99.90;;;;;;6159147;23;20001;-80
2022/08/28 04:30:05;;;;;;;3.17;2.88;;;19.80;99.90;;;;;;6158985;23;20307;-81
2022/08/28 04:32:34;;;;;;;4.10;2.92;;;19.90;99.90;;;;;;6185117;23;20024;-81
2022/08/28 04:35:00;;;;;;;3.20;2.90;;;19.80;99.90;;;;;;6158667;23;20012;-81
2022/08/28 04:37:26;;;;;;;9.25;3.35;;;19.80;99.90;;;;;;6185318;23;20005;-81
2022/08/28 04:39:52;;;;;;;6.28;3.65;;;19.80;99.90;;;;;;6185156;23;20028;-81
2022/08/28 04:42:18;;;;;;;3.95;3.65;;;19.80;99.90;;;;;;6158668;23;20005;-81
2022/08/28 04:44:44;;;;;;;5.55;3.40;;;19.80;99.90;;;;;;6159034;23;20017;-81
2022/08/28 04:47:09;;;;;;;5.20;4.30;;;19.80;99.90;;;;;;6158673;23;20323;-81
2022/08/28 04:49:35;;;;;;;5.25;3.55;;;19.90;99.90;;;;;;6158890;23;20001;-80
2022/08/28 04:52:02;;;;;;;3.42;3.15;;;19.80;99.90;;;;;;6185199;23;20005;-81
2022/08/28 04:54:28;;;;;;;5.43;3.30;;;19.80;99.90;;;;;;6158649;23;20303;-81
2022/08/28 04:56:53;;;;;;;3.95;3.65;;;19.80;99.90;;;;;;6158761;23;20039;-81
2022/08/28 04:59:19;;;;;;;4.20;3.38;;;19.70;99.90;;;;;;6185037;23;20318;-80
2022/08/28 05:01:45;;;;;;;4.65;4.25;;;19.70;99.90;;;;;;6184766;23;20005;-81
2022/08/28 05:04:11;;;;;;;4.30;3.90;;;19.70;99.90;;;;;;6184948;23;20529;-81
2022/08/28 05:06:42;;;;;;;3.60;3.30;;;19.80;99.90;;;;;;6185119;23;20031;-81
2022/08/28 05:09:08;;;;;;;4.88;3.63;;;19.70;99.90;;;;;;6158631;23;20035;-81
2022/08/28 05:11:33;;;;;;;6.07;4.15;;;19.80;99.90;;;;;;6158426;23;20005;-81
2022/08/28 05:14:00;;;;;;;4.22;3.72;;;19.80;99.90;;;;;;6158701;23;20032;-81
2022/08/28 05:16:26;;;;;;;4.15;3.30;;;19.80;99.90;;;;;;6184882;23;20048;-81
2022/08/28 05:18:51;;;;;;;6.75;3.83;;;19.80;99.90;;;;;;6184723;23;20357;-81
2022/08/28 05:21:20;;;;;;;4.05;3.50;;;19.80;99.90;;;;;;6184935;23;20433;-81
2022/08/28 05:23:53;;;;;;;3.50;3.20;;;19.90;99.90;;;;;;6184920;23;20337;-81
2022/08/28 05:26:19;;;;;;;4.28;3.63;;;19.90;99.90;;;;;;6158484;23;20012;-81
2022/08/28 05:28:48;;;;;;;4.63;3.83;;;19.90;99.90;;;;;;6158293;23;19997;-81
2022/08/28 05:31:17;;;;;;;4.65;4.15;;;19.90;99.90;;;;;;6184662;23;19997;-81
2022/08/28 05:33:44;;;;;;;5.20;3.08;;;19.90;99.90;;;;;;6184654;23;20008;-80
2022/08/28 05:36:10;;;;;;;3.50;3.30;;;20.00;99.90;;;;;;6158342;23;20005;-80
2022/08/28 05:38:37;;;;;;;4.18;3.83;;;20.00;99.90;;;;;;6158154;23;20012;-80
2022/08/28 05:41:03;;;;;;;3.60;3.40;;;20.10;99.90;;;;;;6184361;23;20431;-81
2022/08/28 05:43:30;;;;;;;4.72;4.07;;;20.10;99.90;;;;;;6158209;23;20031;-81
2022/08/28 05:46:02;;;;;;;4.05;3.75;;;20.20;99.90;;;;;;6184738;23;20337;-81
2022/08/28 05:48:30;;;;;;;4.53;3.55;;;20.30;99.90;;;;;;6158356;23;20005;-81
2022/08/28 05:51:06;;;;;;;3.95;3.55;;;20.30;99.90;;;;;;6158212;23;20416;-81
2022/08/28 05:53:38;;;;;;;3.78;3.47;;;20.30;99.90;;;;;;6158100;23;20012;-81
2022/08/28 05:56:04;;;;;;;4.30;3.97;;;20.40;99.90;;;;;;6158343;23;20013;-81
2022/08/28 05:58:31;;;;;;;3.85;3.55;;;20.50;99.90;;;;;;6184697;23;20039;-81
2022/08/28 06:01:11;;;;;;;10.07;4.00;;;20.50;99.90;;;;;;6184372;23;20426;-81
2022/08/28 06:03:38;;;;;;;3.88;3.30;;;20.60;99.90;;;;;;6184443;23;20075;-81
2022/08/28 06:06:05;;;;;;;3.97;3.65;;;20.60;99.90;;;;;;6180504;23;20021;-81
2022/08/28 06:08:31;;;;;;;3.83;3.38;;;20.70;99.90;;;;;;6182768;23;20012;-81
2022/08/28 06:10:59;;;;;;;4.00;3.70;;;20.80;99.90;;;;;;6182492;23;20029;-81
2022/08/28 06:13:25;;;;;;;4.68;3.67;;;20.80;99.90;;;;;;6182955;23;20005;-81
2022/08/28 06:15:51;;;;;;;3.70;3.40;;;20.90;99.90;;;;;;6184327;23;20088;-81
2022/08/28 06:18:17;;;;;;;4.07;3.67;;;20.90;99.90;;;;;;6182617;23;20012;-81
2022/08/28 06:20:44;;;;;;;4.28;3.78;;;20.90;99.90;;;;;;6182820;23;20425;-80
2022/08/28 06:23:13;;;;;;;6.45;4.30;;;21.00;99.90;;;;;;6182394;23;20456;-81
2022/08/28 06:25:43;;;;;;;4.25;3.42;;;21.00;99.90;;;;;;6182581;23;20004;-81
2022/08/28 06:28:09;;;;;;;6.15;3.75;;;21.10;99.90;;;;;;6183841;23;20008;-81
2022/08/28 06:30:36;;;;;;;3.78;3.58;;;21.20;99.90;;;;;;6184132;23;20021;-81
2022/08/28 06:33:03;;;;;;;3.70;3.40;;;21.20;99.90;;;;;;6182339;23;20008;-81
2022/08/28 06:35:30;;;;;;;4.07;3.78;;;21.20;99.90;;;;;;6184182;23;20035;-81
2022/08/28 06:37:56;;;;;;;3.97;3.67;;;21.30;99.90;;;;;;6184144;23;20172;-81
2022/08/28 06:40:22;;;;;;;6.65;3.90;;;21.40;99.90;;;;;;6184257;23;20005;-81
2022/08/28 06:42:48;;;;;;;4.13;3.83;;;21.40;99.90;;;;;;6183989;23;20400;-81
2022/08/28 06:45:14;;;;;;;3.95;3.55;;;21.50;99.90;;;;;;6184021;23;20308;-81
2022/08/28 06:47:39;;;;;;;3.97;3.70;;;21.60;99.90;;;;;;6182391;23;20001;-81
2022/08/28 06:50:05;;;;;;;12.25;4.22;;;21.70;99.90;;;;;;6184269;23;20004;-81
2022/08/28 06:52:31;;;;;;;6.90;4.00;;;21.70;99.90;;;;;;6183762;23;20028;-81
2022/08/28 06:54:57;;;;;;;4.45;3.92;;;21.80;99.90;;;;;;6184181;23;20008;-81
2022/08/28 06:57:24;;;;;;;3.70;3.40;;;21.90;99.90;;;;;;6182370;23;20426;-80
2022/08/28 06:59:59;;;;;;;3.88;3.65;;;21.90;99.90;;;;;;6177737;23;20005;-82
2022/08/28 07:02:25;;;;;;;3.58;3.38;;;22.00;99.90;;;;;;6175056;23;20037;-88
2022/08/28 07:04:52;;;;;;;6.63;3.90;;;22.00;99.90;;;;;;6174435;23;20395;-82
2022/08/28 07:07:18;;;;;;;7.20;3.70;;;22.10;99.90;;;;;;6178185;23;20434;-81
2022/08/28 07:09:45;;;;;;;4.20;3.90;;;22.20;99.90;;;;;;6178101;23;20489;-84
2022/08/28 07:12:14;;;;;;;6.20;3.95;;;22.20;99.90;;;;;;6177529;23;20036;-83
2022/08/28 07:14:40;;;;;;;5.60;4.25;;;22.30;99.90;;;;;;6177846;23;20019;-80
2022/08/28 07:17:06;;;;;;;5.97;5.20;;;22.30;99.90;;;;;;6181903;23;20048;-81
2022/08/28 07:19:32;;;;;;;4.15;3.78;;;22.40;99.90;;;;;;6182470;23;20011;-81
2022/08/28 07:21:59;;;;;;;4.78;4.18;;;22.50;99.90;;;;;;6180357;23;20016;-80
2022/08/28 07:24:25;;;;;;;6.35;4.82;;;22.50;99.90;;;;;;6182881;23;20005;-80
2022/08/28 07:27:01;;;;;;;14.25;6.50;;;22.50;99.90;;;;;;6180757;23;20033;-81
2022/08/28 07:29:27;;;;;;;6.25;4.90;;;22.60;99.90;;;;;;6180516;23;20464;-81
2022/08/28 07:31:55;;;;;;;5.50;4.50;;;22.60;99.90;;;;;;6182339;23;19997;-82
2022/08/28 07:34:21;;;;;;;4.18;3.88;;;22.70;99.90;;;;;;6182840;23;20035;-81
2022/08/28 07:36:47;;;;;;;5.70;3.88;;;22.80;99.90;;;;;;6182296;23;19997;-80
2022/08/28 07:39:14;;;;;;;5.55;4.10;;;22.80;99.90;;;;;;6181085;23;20001;-80
2022/08/28 07:41:41;;;;;;;4.53;3.90;;;22.90;99.90;;;;;;6182678;23;20024;-81
2022/08/28 07:46:55;;;;;;;4.50;4.13;;;22.90;99.90;;;;;;6181859;23;20586;-82
2022/08/28 07:49:22;;;;;;;4.70;4.35;;;22.90;99.90;;;;;;6180413;23;20012;-81
2022/08/28 07:51:48;;;;;;;5.00;4.47;;;22.90;99.90;;;;;;6181318;23;20009;-82
2022/08/28 07:54:14;;;;;;;4.28;3.97;;;23.00;99.90;;;;;;6180632;23;20111;-81
2022/08/28 07:56:40;;;;;;;7.35;4.50;;;23.00;99.90;;;;;;6181962;23;20005;-81
2022/08/28 07:59:08;;;;;;;5.25;4.75;;;23.00;99.90;;;;;;6180982;23;20063;-81
2022/08/28 08:01:40;;;;;;;5.32;4.07;;;23.00;99.90;;;;;;6179949;23;20422;-82
2022/08/28 08:04:08;;;;;;;5.28;4.53;;;23.10;99.90;;;;;;6180113;23;20009;-81
2022/08/28 08:06:35;;;;;;;4.30;3.90;;;23.10;99.90;;;;;;6156697;23;20009;-82
2022/08/28 08:09:13;;;;;;;4.63;4.20;;;23.10;99.90;;;;;;6185255;23;20425;-80
2022/08/28 08:11:39;;;;;;;5.68;4.30;;;23.10;99.90;;;;;;6185140;23;20453;-80
2022/08/28 08:14:06;;;;;;;5.07;4.68;;;23.10;99.90;;;;;;6158836;23;20009;-79
2022/08/28 08:16:34;;;;;;;6.22;4.47;;;23.20;99.90;;;;;;6185025;23;20001;-80
2022/08/28 08:19:02;;;;;;;6.05;4.68;;;23.20;99.90;;;;;;6158710;23;20005;-81
2022/08/28 08:21:28;;;;;;;5.00;4.60;;;23.20;99.90;;;;;;6158547;23;20009;-82
2022/08/28 08:23:54;;;;;;;5.20;4.25;;;23.30;99.90;;;;;;6158621;23;20067;-81
2022/08/28 08:26:23;;;;;;;4.72;4.30;;;23.30;99.90;;;;;;6157236;23;20430;-81
2022/08/28 08:28:50;;;;;;;6.13;4.95;;;23.30;99.90;;;;;;6184795;23;20565;-80
2022/08/28 08:31:28;;;;;;;7.22;4.93;;;23.40;99.90;;;;;;6158422;23;20032;-81
2022/08/28 08:34:02;;;;;;;5.60;5.03;;;23.40;99.90;;;;;;6158564;23;20146;-80
2022/08/28 08:36:30;;;;;;;6.32;5.18;;;23.40;99.90;;;;;;6158224;23;20342;-81
2022/08/28 08:38:57;;;;;;;6.78;4.95;;;23.50;99.90;;;;;;6184576;23;20008;-80
2022/08/28 08:41:46;;;;;;;7.32;4.95;;;23.50;99.90;;;;;;6158202;23;20438;-80
2022/08/28 08:44:30;;;;;;;4.78;4.35;;;23.50;99.90;;;;;;6158189;23;20334;-80
2022/08/28 08:47:09;;;;;;;5.63;4.68;;;23.50;99.90;;;;;;6158286;23;20012;-80
2022/08/28 08:49:37;;;;;;;6.50;4.70;;;23.50;99.90;;;;;;6184255;23;20017;-80
2022/08/28 08:52:12;;;;;;;4.47;4.20;;;23.60;99.90;;;;;;6186034;23;19997;-80
2022/08/28 08:54:43;;;;;;;7.53;4.60;;;23.70;99.90;;;;;;6186576;23;20009;-80
2022/08/28 08:57:13;;;;;;;8.60;4.95;;;23.70;99.90;;;;;;6186487;23;20001;-80
2022/08/28 08:59:40;;;;;;;7.97;5.30;;;23.60;99.90;;;;;;6160210;23;20008;-80
2022/08/28 09:02:21;;;;;;;6.10;5.53;;;23.70;99.90;;;;;;6159900;23;20009;-80
2022/08/28 09:05:05;;;;;;;5.72;5.00;;;23.70;99.90;;;;;;6166510;23;20017;-80
2022/08/28 09:07:40;;;;;;;6.82;5.22;;;23.70;99.90;;;;;;6186695;23;20004;-80
2022/08/28 09:10:14;;;;;;;5.85;4.95;;;23.80;99.90;;;;;;6186683;23;20001;-80
2022/08/28 09:13:15;;;;;;;5.40;4.80;;;23.80;99.90;;;;;;6185018;23;20009;-80
2022/08/28 09:15:45;;;;;;;8.07;5.72;;;23.80;99.90;;;;;;6186837;23;20008;-80
2022/08/28 09:18:27;;;;;;;8.95;4.72;;;23.80;99.90;;;;;;6185111;23;20009;-80
2022/08/28 09:20:57;;;;;;;11.68;5.25;;;23.80;99.90;;;;;;6186603;23;20009;-80
2022/08/28 09:23:24;;;;;;;6.63;4.57;;;23.80;99.90;;;;;;6184887;23;20015;-80
2022/08/28 09:25:58;;;;;;;5.20;4.72;;;23.90;99.90;;;;;;6186388;23;20012;-80
2022/08/28 09:28:28;;;;;;;5.93;4.47;;;23.90;99.90;;;;;;6185089;23;20063;-81
2022/08/28 09:31:03;;;;;;;5.15;4.55;;;24.00;99.90;;;;;;6184698;23;20005;-80
2022/08/28 09:33:34;;;;;;;5.05;4.18;;;24.00;99.90;;;;;;6186593;23;20001;-80
2022/08/28 09:36:22;;;;;;;5.43;4.65;;;24.10;99.90;;;;;;6184908;23;20341;-80
2022/08/28 09:39:07;;;;;;;5.40;4.90;;;24.30;99.90;;;;;;6184799;23;20032;-80
2022/08/28 09:45:17;;;;;;;4.80;4.40;;;24.40;99.90;;;;;;6186228;23;20104;-81
2022/08/28 09:47:53;;;;;;;6.05;4.80;;;24.60;99.90;;;;;;6184706;23;20033;-80
2022/08/28 09:50:24;;;;;;;5.82;4.82;;;24.60;99.90;;;;;;6184493;23;20016;-80
2022/08/28 09:52:52;;;;;;;7.13;4.68;;;24.60;99.90;;;;;;6184304;23;20008;-81
2022/08/28 09:56:12;;;;;;;5.03;4.38;;;24.60;99.90;;;;;;6185876;23;19997;-80
2022/08/28 09:58:45;;;;;;;5.97;4.50;;;24.60;99.90;;;;;;6066296;23;20007;-80
2022/08/28 10:01:23;;;;;;;5.70;5.18;;;24.70;99.90;;;;;;6182441;23;20011;-81
2022/08/28 10:03:54;;;;;;;4.40;4.03;;;24.80;99.90;;;;;;6185161;23;20084;-79
2022/08/28 10:06:25;;;;;;;6.25;4.82;;;25.10;99.90;;;;;;6185625;23;20052;-80
2022/08/28 10:09:03;;;;;;;5.55;4.18;;;25.00;99.90;;;;;;6186225;23;20076;-80
2022/08/28 10:11:34;;;;;;;4.85;4.00;;;25.00;99.90;;;;;;6184099;23;20005;-80
2022/08/28 10:14:38;;;;;;;4.30;4.00;;;25.00;99.90;;;;;;6184531;23;20033;-80
2022/08/28 10:17:25;;;;;;;3.50;3.30;;;25.10;99.90;;;;;;6142434;23;20012;-80
2022/08/28 10:20:35;;;;;;;4.88;3.78;;;25.20;99.90;;;;;;6185697;23;20337;-80
2022/08/28 10:23:15;;;;;;;4.15;3.65;;;25.20;99.90;;;;;;6164513;23;20092;-80
2022/08/28 10:25:56;;;;;;;4.75;4.30;;;25.30;99.90;;;;;;6184217;23;20334;-80
2022/08/28 10:28:39;;;;;;;3.92;3.58;;;25.40;99.90;;;;;;6185596;23;19997;-80
2022/08/28 10:31:17;;;;;;;5.60;4.07;;;25.40;99.90;;;;;;6185437;23;20051;-80
2022/08/28 10:34:16;;;;;;;4.22;3.92;;;25.50;99.90;;;;;;6183836;23;20009;-80
2022/08/28 10:36:45;;;;;;;4.82;4.15;;;25.40;99.90;;;;;;6184227;23;20016;-80
2022/08/28 10:39:35;;;;;;;6.20;4.47;;;25.50;99.90;;;;;;6184145;23;20009;-80
2022/08/28 10:42:05;;;;;;;4.70;4.28;;;25.60;99.90;;;;;;6184022;23;20025;-81
2022/08/28 10:45:04;;;;;;;4.20;3.90;;;25.70;99.90;;;;;;6185861;23;20001;-80
2022/08/28 10:47:33;;;;;;;6.13;3.90;;;25.70;99.90;;;;;;6182852;23;20005;-80
2022/08/28 10:50:04;;;;;;;4.60;4.20;;;25.70;99.90;;;;;;6185594;23;19997;-79
2022/08/28 10:52:40;;;;;;;5.22;4.38;;;25.80;99.90;;;;;;6185491;23;20001;-80
2022/08/28 10:55:17;;;;;;;4.88;4.10;;;25.90;99.90;;;;;;6185570;23;20005;-80
2022/08/28 10:57:50;;;;;;;4.57;4.22;;;26.00;99.90;;;;;;6185391;23;20059;-81
2022/08/28 11:00:20;;;;;;;4.63;4.25;;;26.00;99.90;;;;;;6185148;23;20009;-80
2022/08/28 11:02:56;;;;;;;4.47;4.07;;;26.20;99.90;;;;;;6183634;23;20001;-81
2022/08/28 11:05:25;;;;;;;4.45;3.97;;;26.10;99.90;;;;;;6183422;23;20377;-80
2022/08/28 11:07:59;;;;;;;7.05;4.65;;;26.10;99.90;;;;;;6185121;23;20437;-79
2022/08/28 11:10:31;;;;;;;8.18;4.82;;;26.20;99.90;;;;;;6183648;23;20032;-78
2022/08/28 11:12:58;;;;;;;7.03;4.53;;;26.20;99.90;;;;;;6184814;23;20001;-78
2022/08/28 11:15:27;;;;;;;5.15;4.68;;;26.30;99.90;;;;;;6183392;23;20437;-78
2022/08/28 11:18:19;;;;;;;5.43;4.30;;;26.40;99.90;;;;;;6183662;23;20008;-78
2022/08/28 11:21:22;;;;;;;5.07;4.68;;;26.40;99.90;;;;;;6182637;23;20016;-78
2022/08/28 11:23:57;;;;;;;5.68;4.90;;;26.50;99.90;;;;;;6185321;23;20092;-79
2022/08/28 11:26:50;;;;;;;4.90;4.50;;;26.50;99.90;;;;;;6185327;23;19997;-78
2022/08/28 11:30:01;;;;;;;5.18;4.65;;;26.60;99.90;;;;;;6185411;23;20127;-79
2022/08/28 11:32:50;;;;;;;7.47;5.45;;;26.60;99.90;;;;;;6139254;23;20009;-78
2022/08/28 11:35:37;;;;;;;5.13;4.70;;;26.60;99.90;;;;;;6185079;23;20008;-78
2022/08/28 11:38:04;;;;;;;4.90;4.47;;;26.70;99.90;;;;;;6185065;23;20005;-78
2022/08/28 11:40:32;;;;;;;4.90;4.40;;;26.70;99.90;;;;;;6185010;23;20084;-78
2022/08/28 11:43:13;;;;;;;4.75;4.25;;;26.70;99.90;;;;;;6183742;23;20070;-78
2022/08/28 11:45:42;;;;;;;5.43;4.80;;;26.80;99.90;;;;;;6182243;23;20036;-78
2022/08/28 11:48:28;;;;;;;6.32;4.72;;;26.90;99.90;;;;;;6184389;23;20028;-79
2022/08/28 11:50:56;;;;;;;5.80;4.70;;;27.00;99.90;;;;;;6183823;23;20429;-80
2022/08/28 11:53:46;;;;;;;5.63;5.15;;;27.00;99.90;;;;;;6184729;23;19997;-80
2022/08/28 11:56:27;;;;;;;7.45;4.45;;;27.00;99.90;;;;;;6184946;23;20008;-80
2022/08/28 11:59:19;;;;;;;7.13;5.13;;;27.10;99.90;;;;;;6183754;23;20005;-78
2022/08/28 12:01:45;;;;;;;8.13;5.30;;;27.00;99.90;;;;;;6183014;23;20036;-78
2022/08/28 12:04:14;;;;;;;5.60;5.10;;;27.20;99.90;;;;;;6184677;23;20005;-78
2022/08/28 12:06:51;;;;;;;6.22;5.00;;;27.20;99.90;;;;;;6184900;23;20132;-78
2022/08/28 12:09:25;;;;;;;5.70;4.90;;;27.20;99.90;;;;;;6183666;23;20005;-79
2022/08/28 12:11:58;;;;;;;5.25;4.68;;;27.20;99.90;;;;;;6158138;23;20037;-79
2022/08/28 12:14:24;;;;;;;6.57;4.72;;;27.20;99.90;;;;;;6157155;23;20009;-79
2022/08/28 12:17:04;;;;;;;4.63;4.32;;;27.30;99.90;;;;;;6184386;23;20080;-79
2022/08/28 12:19:41;;;;;;;5.22;4.68;;;27.50;99.90;;;;;;6157671;23;20075;-78
2022/08/28 12:22:15;;;;;;;5.25;4.72;;;27.50;99.90;;;;;;6158109;23;20001;-78
2022/08/28 12:24:51;;;;;;;4.82;4.35;;;27.60;99.90;;;;;;6158052;23;20009;-78
2022/08/28 12:27:18;;;;;;;6.20;5.00;;;27.60;99.90;;;;;;6186279;23;19998;-78
2022/08/28 12:29:53;;;;;;;6.43;4.13;;;27.60;99.90;;;;;;6187096;23;20001;-78
2022/08/28 12:32:42;;;;;;;4.65;4.25;;;27.70;99.90;;;;;;6160733;23;20005;-79
2022/08/28 12:35:13;;;;;;;4.13;3.83;;;27.70;99.90;;;;;;6160554;23;20063;-78
2022/08/28 12:37:57;;;;;;;3.80;3.50;;;27.80;99.90;;;;;;6186737;23;20001;-78
2022/08/28 12:40:49;;;;;;;4.32;3.90;;;27.90;99.90;;;;;;6186752;23;20005;-78
2022/08/28 12:43:27;;;;;;;4.82;3.67;;;28.00;99.90;;;;;;6160248;23;20037;-78
2022/08/28 12:45:55;;;;;;;5.03;3.78;;;28.10;99.90;;;;;;6160362;23;20092;-79
2022/08/28 12:48:21;;;;;;;4.05;3.75;;;28.10;99.90;;;;;;6159787;23;20095;-78
2022/08/28 12:50:47;;;;;;;4.65;4.13;;;28.10;99.90;;;;;;6160074;23;20009;-79
2022/08/28 12:53:16;;;;;;;4.82;4.38;;;28.20;99.90;;;;;;6184549;23;20009;-80
2022/08/28 12:55:44;;;;;;;4.45;4.05;;;28.10;99.30;;;;;;6159839;23;20009;-80
2022/08/28 12:58:26;;;;;;;4.63;4.25;;;28.10;99.80;;;;;;6185483;23;20055;-80
2022/08/28 13:00:56;;;;;;;4.93;4.43;;;28.10;99.90;;;;;;6186245;23;20005;-81
2022/08/28 13:03:23;;;;;;;4.45;4.05;;;28.00;99.90;;;;;;6186384;23;19997;-80
2022/08/28 13:05:57;;;;;;;4.22;3.83;;;28.20;99.90;;;;;;6186177;23;20009;-80
2022/08/28 13:08:23;;;;;;;4.13;3.60;;;28.20;99.90;;;;;;6186026;23;20001;-81
2022/08/28 13:10:50;;;;;;;6.00;4.43;;;28.40;99.90;;;;;;6185553;23;19997;-80